Time;durP1;ratioP1;P1;durP2;ratioP2;P2;SDS_P1;SDS_P2;PMS_P1;PMS_P2;Temp;Humidity;BMP_temperature;BMP_pressure;BME280_temperature;BME280_humidity;BME280_pressure;Samples;Min_cycle;Max_cycle;Signal;HPM_P1;HPM_P2
2024/01/05 00:03:03;;;;;;;10.97;3.30;;;;;;;;;;2610995;54;20462;-76
2024/01/05 00:08:33;;;;;;;5.77;2.83;;;;;;;;;;2611617;54;20354;-76
2024/01/05 00:14:02;;;;;;;6.87;3.03;;;;;;;;;;2612803;54;20374;-75
2024/01/05 00:19:32;;;;;;;7.93;2.97;;;;;;;;;;2610753;54;20430;-75
2024/01/05 00:25:02;;;;;;;6.67;2.50;;;;;;;;;;2612176;54;20425;-74
2024/01/05 00:30:34;;;;;;;8.93;2.70;;;;;;;;;;2611850;54;20462;-73
2024/01/05 00:36:08;;;;;;;6.47;2.67;;;;;;;;;;2614354;54;20367;-75
2024/01/05 00:41:38;;;;;;;8.53;2.93;;;;;;;;;;2611522;54;20390;-74
2024/01/05 00:47:07;;;;;;;11.67;3.77;;;;;;;;;;2612683;54;20960;-74
2024/01/05 00:52:37;;;;;;;7.50;2.77;;;;;;;;;;2614016;54;20394;-75
2024/01/05 00:58:07;;;;;;;10.77;3.17;;;;;;;;;;2612963;54;20365;-76
2024/01/05 01:03:36;;;;;;;7.20;2.70;;;;;;;;;;2614329;31;20853;-74
2024/01/05 01:09:07;;;;;;;7.10;3.13;;;;;;;;;;2613609;54;20366;-74
2024/01/05 01:14:36;;;;;;;6.27;2.57;;;;;;;;;;2615038;54;20363;-75
2024/01/05 01:20:06;;;;;;;5.00;2.10;;;;;;;;;;2613806;54;20367;-74
2024/01/05 01:29:11;;;;;;;14.50;3.43;;;;;;;;;;2613151;54;20893;-75
2024/01/05 01:34:40;;;;;;;12.70;2.90;;;;;;;;;;2614558;54;20386;-74
2024/01/05 01:40:10;;;;;;;6.13;3.23;;;;;;;;;;2613315;54;20343;-75
2024/01/05 01:45:40;;;;;;;7.50;3.00;;;;;;;;;;2615386;54;20373;-74
2024/01/05 01:51:10;;;;;;;8.17;3.37;;;;;;;;;;2613825;54;20374;-74
2024/01/05 01:56:40;;;;;;;9.00;2.67;;;;;;;;;;2613487;54;20489;-74
2024/01/05 02:02:11;;;;;;;10.33;2.83;;;;;;;;;;2611913;54;20461;-75
2024/01/05 02:07:42;;;;;;;6.40;2.97;;;;;;;;;;2615154;39;20881;-75
2024/01/05 02:13:12;;;;;;;7.87;2.40;;;;;;;;;;2614475;54;21003;-74
2024/01/05 02:18:41;;;;;;;7.97;2.57;;;;;;;;;;2613371;54;20368;-74
2024/01/05 02:24:11;;;;;;;6.20;2.20;;;;;;;;;;2613234;54;20377;-75
2024/01/05 02:29:41;;;;;;;10.20;3.27;;;;;;;;;;2613573;39;21178;-76
2024/01/05 02:35:10;;;;;;;8.23;2.67;;;;;;;;;;2613377;54;20413;-75
2024/01/05 02:40:40;;;;;;;8.83;2.33;;;;;;;;;;2613584;31;20896;-74
2024/01/05 02:46:09;;;;;;;5.93;2.33;;;;;;;;;;2613642;54;20382;-72
2024/01/05 02:51:39;;;;;;;8.60;3.20;;;;;;;;;;2613203;54;20366;-75
2024/01/05 02:57:09;;;;;;;13.60;2.70;;;;;;;;;;2613112;54;20919;-76
2024/01/05 03:02:39;;;;;;;8.60;3.23;;;;;;;;;;2613294;54;20936;-74
2024/01/05 03:08:08;;;;;;;9.27;3.03;;;;;;;;;;2614079;54;20486;-74
2024/01/05 03:13:38;;;;;;;10.50;3.03;;;;;;;;;;2611912;54;20365;-75
2024/01/05 03:19:07;;;;;;;10.30;2.80;;;;;;;;;;2609906;54;20414;-74
2024/01/05 03:24:37;;;;;;;7.37;2.50;;;;;;;;;;2614840;54;20417;-75
2024/01/05 03:30:07;;;;;;;6.67;3.27;;;;;;;;;;2613184;39;21077;-74
2024/01/05 03:35:37;;;;;;;7.53;2.80;;;;;;;;;;2614711;54;20373;-76
2024/01/05 03:41:07;;;;;;;5.43;2.40;;;;;;;;;;2614640;54;20362;-75
2024/01/05 03:46:37;;;;;;;6.23;2.40;;;;;;;;;;2614594;54;20366;-75
2024/01/05 03:52:07;;;;;;;8.30;2.90;;;;;;;;;;2611915;54;20920;-75
2024/01/05 03:57:36;;;;;;;4.30;2.87;;;;;;;;;;2614330;54;20379;-75
2024/01/05 04:03:06;;;;;;;3.80;2.43;;;;;;;;;;2613617;54;20410;-75
2024/01/05 04:08:39;;;;;;;5.53;2.10;;;;;;;;;;2614405;54;20358;-76
2024/01/05 04:14:08;;;;;;;16.23;3.47;;;;;;;;;;2615005;54;20422;-75
2024/01/05 04:19:38;;;;;;;7.50;3.00;;;;;;;;;;2616029;54;20473;-75
2024/01/05 04:31:15;;;;;;;5.67;2.47;;;;;;;;;;2614222;54;20357;-76
2024/01/05 04:36:44;;;;;;;3.07;1.60;;;;;;;;;;2613553;54;20386;-75
2024/01/05 04:39:29;;;;;;;6.77;2.57;;;;;;;;;;2613782;54;20442;-75
2024/01/05 04:41:55;;;;;;;6.97;2.57;;;;;;;;;;2613962;54;20989;-76
2024/01/05 04:47:25;;;;;;;10.60;5.30;;;;;;;;;;2613973;54;20375;-76
2024/01/05 04:52:54;;;;;;;4.57;2.57;;;;;;;;;;2613621;54;20390;-75
2024/01/05 04:58:24;;;;;;;4.70;2.80;;;;;;;;;;2614588;54;20988;-75
2024/01/05 05:03:53;;;;;;;4.90;2.47;;;;;;;;;;2614066;54;20406;-75
2024/01/05 05:09:23;;;;;;;5.73;2.27;;;;;;;;;;2612627;54;20393;-75
2024/01/05 05:14:53;;;;;;;7.10;2.57;;;;;;;;;;2612527;54;20366;-75
2024/01/05 05:20:23;;;;;;;5.33;2.60;;;;;;;;;;2613957;39;22472;-75
2024/01/05 05:29:27;;;;;;;7.90;3.17;;;;;;;;;;2610949;54;20439;-75
2024/01/05 05:34:57;;;;;;;4.50;2.20;;;;;;;;;;2614364;54;20378;-76
2024/01/05 05:40:26;;;;;;;8.23;2.07;;;;;;;;;;2614026;54;20471;-76
2024/01/05 05:46:14;;;;;;;8.50;3.10;;;8.40;99.90;;;;;;2613246;54;20342;-75
2024/01/05 05:52:04;;;;;;;7.03;2.67;;;;;;;;;;2612049;54;20130;-76
2024/01/05 05:57:33;;;;;;;6.60;2.70;;;8.60;99.90;;;;;;2611651;54;20422;-76
2024/01/05 06:03:22;;;;;;;6.03;2.20;;;8.20;99.90;;;;;;2613281;54;20130;-76
2024/01/05 06:09:14;;;;;;;4.40;2.40;;;8.20;99.90;;;;;;2613093;54;20426;-78
2024/01/05 06:14:45;;;;;;;5.23;2.90;;;;;;;;;;2612995;54;20493;-76
2024/01/05 06:20:33;;;;;;;7.63;2.73;;;7.90;99.90;;;;;;2613970;54;20371;-75
2024/01/05 06:29:43;;;;;;;7.50;1.70;;;;;;;;;;2614683;39;20917;-76
2024/01/05 06:35:13;;;;;;;4.10;2.10;;;;;;;;;;2613244;54;20414;-76
2024/01/05 06:40:43;;;;;;;4.47;1.83;;;;;;;;;;2613001;46;20513;-76
2024/01/05 06:46:13;;;;;;;3.60;2.40;;;;;;;;;;2613463;54;20386;-76
2024/01/05 06:51:42;;;;;;;3.80;2.03;;;;;;;;;;2613688;54;20442;-76
2024/01/05 06:57:12;;;;;;;6.87;2.20;;;;;;;;;;2613681;54;20403;-77
2024/01/05 07:02:42;;;;;;;6.03;2.60;;;;;;;;;;2613339;54;20352;-76
2024/01/05 07:08:11;;;;;;;5.33;2.33;;;;;;;;;;2613397;54;20393;-78
2024/01/05 07:13:42;;;;;;;6.77;2.73;;;;;;;;;;2613411;39;20903;-77
2024/01/05 07:19:12;;;;;;;3.40;2.20;;;;;;;;;;2613985;54;20917;-75
2024/01/05 07:24:42;;;;;;;4.93;2.43;;;;;;;;;;2612363;54;20908;-75
2024/01/05 07:30:11;;;;;;;8.00;2.60;;;;;;;;;;2611542;54;20398;-77
2024/01/05 07:35:41;;;;;;;5.20;2.43;;;;;;;;;;2610190;54;20429;-76
2024/01/05 07:41:17;;;;;;;3.10;1.87;;;;;;;;;;2613543;54;20614;-77
2024/01/05 07:46:47;;;;;;;3.00;2.00;;;;;;;;;;2610766;54;20409;-75
2024/01/05 07:52:17;;;;;;;5.93;1.90;;;;;;;;;;2613823;54;20929;-75
2024/01/05 07:57:46;;;;;;;2.53;1.50;;;8.90;99.90;;;;;;2613914;39;20764;-75
2024/01/05 08:03:34;;;;;;;6.00;1.33;;;8.80;99.90;;;;;;2613243;54;20368;-75
2024/01/05 08:09:22;;;;;;;3.23;2.03;;;8.90;99.90;;;;;;2613216;54;20173;-75
2024/01/05 08:15:09;;;;;;;2.90;2.20;;;8.90;99.90;;;;;;2614485;54;20395;-74
2024/01/05 08:20:57;;;;;;;5.33;1.97;;;8.80;99.90;;;;;;2613756;54;20794;-76
2024/01/05 08:30:10;;;;;;;5.33;2.00;;;8.80;99.90;;;;;;2613155;54;20406;-76
2024/01/05 08:36:00;;;;;;;4.73;1.70;;;8.80;99.90;;;;;;2613207;54;20969;-77
2024/01/05 08:41:47;;;;;;;7.03;3.20;;;9.00;99.90;;;;;;2613598;54;20419;-76
2024/01/05 08:47:37;;;;;;;1.50;1.30;;;;;;;;;;2612669;39;20622;-74
2024/01/05 08:53:09;;;;;;;1.10;1.00;;;;;;;;;;2614283;54;20369;-78
2024/01/05 08:58:56;;;;;;;2.80;1.33;;;9.30;99.90;;;;;;2613976;54;20432;-78
2024/01/05 09:04:44;;;;;;;2.57;1.60;;;9.40;99.90;;;;;;2613806;54;20145;-75
2024/01/05 09:10:33;;;;;;;2.50;1.70;;;9.20;99.90;;;;;;2614121;31;20701;-76
2024/01/05 09:16:20;;;;;;;3.60;1.50;;;9.30;99.90;;;;;;2615329;54;21015;-76
2024/01/05 09:22:08;;;;;;;2.07;1.87;;;9.40;99.90;;;;;;2612976;54;20247;-76
2024/01/05 09:28:00;;;;;;;2.63;1.80;;;9.30;99.90;;;;;;2614370;54;20194;-75
2024/01/05 09:33:49;;;;;;;3.43;1.90;;;9.20;99.90;;;;;;2614226;54;20505;-77
2024/01/05 09:39:37;;;;;;;2.20;1.90;;;9.20;99.90;;;;;;2614129;54;20932;-76
2024/01/05 09:45:25;;;;;;;1.57;1.47;;;8.90;99.90;;;;;;2614862;54;20642;-74
2024/01/05 09:51:13;;;;;;;1.47;1.37;;;9.00;99.90;;;;;;2614472;54;20414;-74
2024/01/05 09:57:02;;;;;;;1.80;1.70;;;9.10;99.90;;;;;;2613405;54;20401;-75
2024/01/05 10:00:05;;;;;;;1.50;1.40;;;9.20;99.90;;;;;;2612087;54;20497;-73
2024/01/05 10:02:36;;;;;;;1.47;1.40;;;9.20;99.90;;;;;;2611960;47;20429;-76
2024/01/05 10:08:24;;;;;;;1.73;1.63;;;;;;;;;;2614053;54;20365;-74
2024/01/05 10:13:54;;;;;;;3.00;1.60;;;;;;;;;;2613676;54;20376;-75
2024/01/05 10:19:25;;;;;;;2.20;2.10;;;;;;;;;;2613641;54;20382;-75
2024/01/05 10:24:55;;;;;;;2.20;1.83;;;;;;;;;;2613618;54;20536;-74
2024/01/05 10:30:25;;;;;;;1.60;1.53;;;;;;;;;;2614920;54;20491;-74
2024/01/05 10:41:53;;;;;;;2.07;1.87;;;;;;;;;;2614990;54;20387;-76
2024/01/05 10:47:24;;;;;;;2.23;2.03;;;;;;;;;;2613551;54;20417;-75
2024/01/05 10:52:54;;;;;;;1.70;1.60;;;;;;;;;;2613973;54;20559;-77
2024/01/05 10:58:24;;;;;;;1.90;1.60;;;;;;;;;;2614473;54;20386;-75
2024/01/05 11:03:54;;;;;;;1.80;1.70;;;;;;;;;;2614742;54;20505;-76
2024/01/05 11:15:50;;;;;;;1.97;1.87;;;;;;;;;;2614113;39;20953;-77
2024/01/05 11:21:25;;;;;;;2.77;2.00;;;;;;;;;;2614333;54;20358;-76
2024/01/05 11:30:32;;;;;;;1.70;1.60;;;;;;;;;;2612884;54;20414;-76
2024/01/05 11:36:02;;;;;;;1.63;1.53;;;;;;;;;;2614602;54;20820;-76
2024/01/05 11:41:33;;;;;;;1.60;1.50;;;;;;;;;;2614810;39;20504;-76
2024/01/05 11:47:03;;;;;;;1.73;1.63;;;;;;;;;;2615014;54;20467;-77
2024/01/05 11:52:32;;;;;;;2.80;1.83;;;;;;;;;;2613870;54;20412;-77
2024/01/05 11:58:02;;;;;;;1.93;1.70;;;;;;;;;;2613214;54;20378;-75
2024/01/05 12:03:33;;;;;;;1.80;1.70;;;;;;;;;;2612064;54;20401;-74
2024/01/05 12:09:03;;;;;;;2.80;2.10;;;;;;;;;;2613959;54;20500;-75
2024/01/05 12:14:32;;;;;;;1.60;1.50;;;;;;;;;;2612163;54;20382;-74
2024/01/05 12:20:10;;;;;;;1.60;1.50;;;;;;;;;;2614405;54;20365;-75
2024/01/05 12:25:41;;;;;;;1.70;1.60;;;;;;;;;;2613857;54;20353;-74
2024/01/05 12:31:11;;;;;;;1.43;1.33;;;;;;;;;;2614487;54;20369;-75
2024/01/05 12:36:41;;;;;;;6.93;1.80;;;;;;;;;;2612188;54;20409;-76
2024/01/05 12:42:10;;;;;;;5.93;1.77;;;;;;;;;;2614514;54;21052;-76
2024/01/05 12:47:40;;;;;;;2.17;1.70;;;;;;;;;;2612615;54;20373;-74
2024/01/05 12:53:18;;;;;;;2.63;1.80;;;;;;;;;;2612369;54;20421;-75
2024/01/05 12:58:48;;;;;;;2.40;1.13;;;;;;;;;;2613307;54;20384;-76
2024/01/05 13:04:30;;;;;;;4.80;1.53;;;;;;;;;;2614440;54;23028;-75
2024/01/05 13:10:04;;;;;;;5.23;1.03;;;;;;;;;;2615019;54;20389;-75
2024/01/05 13:15:34;;;;;;;1.73;1.30;;;;;;;;;;2613845;54;20913;-74
2024/01/05 13:21:06;;;;;;;1.03;0.80;;;;;;;;;;2613999;54;20547;-73
2024/01/05 13:32:49;;;;;;;1.17;1.00;;;;;;;;;;2614432;54;20349;-74
2024/01/05 13:38:22;;;;;;;1.50;1.10;;;;;;;;;;2614517;54;20333;-74
2024/01/05 13:43:56;;;;;;;5.83;1.47;;;;;;;;;;2614658;54;20973;-75
2024/01/05 13:49:30;;;;;;;1.20;1.10;;;;;;;;;;2612738;54;20882;-73
2024/01/05 13:55:00;;;;;;;2.23;1.57;;;;;;;;;;2613586;54;20906;-74
2024/01/05 14:00:30;;;;;;;2.87;1.27;;;;;;;;;;2613096;54;20398;-74
2024/01/05 14:06:03;;;;;;;3.57;1.63;;;;;;;;;;2613272;54;20959;-74
2024/01/05 14:11:33;;;;;;;1.70;1.60;;;;;;;;;;2612610;54;20393;-73
2024/01/05 14:17:03;;;;;;;3.67;1.90;;;;;;;;;;2613413;54;20903;-74
2024/01/05 14:22:33;;;;;;;2.43;1.77;;;;;;;;;;2614106;54;20385;-73
2024/01/05 14:31:43;;;;;;;3.43;1.90;;;;;;;;;;2612567;54;20471;-76
2024/01/05 14:37:13;;;;;;;3.60;1.70;;;;;;;;;;2614216;54;20402;-77
2024/01/05 14:42:45;;;;;;;4.97;1.50;;;;;;;;;;2613507;39;20742;-76
2024/01/05 14:48:15;;;;;;;11.13;1.90;;;;;;;;;;2612718;39;20876;-77
2024/01/05 14:53:45;;;;;;;2.43;1.57;;;;;;;;;;2613560;54;20524;-77
2024/01/05 14:59:15;;;;;;;5.17;1.80;;;;;;;;;;2614192;54;20416;-77
2024/01/05 15:04:45;;;;;;;1.00;0.90;;;;;;;;;;2613663;54;20487;-76
2024/01/05 15:10:15;;;;;;;2.80;1.40;;;;;;;;;;2614589;54;20409;-77
2024/01/05 15:15:45;;;;;;;0.73;0.60;;;;;;;;;;2615193;54;20364;-76
2024/01/05 15:21:24;;;;;;;4.80;1.47;;;;;;;;;;2614937;54;20420;-76
2024/01/05 15:26:54;;;;;;;2.97;2.00;;;;;;;;;;2613153;54;20348;-77
2024/01/05 15:32:24;;;;;;;4.53;1.50;;;;;;;;;;2612959;54;20440;-76
2024/01/05 15:37:54;;;;;;;1.80;1.50;;;;;;;;;;2615028;54;20396;-75
2024/01/05 15:43:23;;;;;;;4.93;1.20;;;;;;;;;;2613994;54;20918;-75
2024/01/05 15:48:53;;;;;;;4.03;1.80;;;;;;;;;;2613288;54;20387;-76
2024/01/05 15:54:23;;;;;;;4.80;1.90;;;;;;;;;;2614281;54;20366;-76
2024/01/05 15:59:52;;;;;;;7.40;1.43;;;;;;;;;;2612834;54;20363;-75
2024/01/05 16:05:22;;;;;;;3.37;1.30;;;;;;;;;;2612458;39;20793;-76
2024/01/05 16:08:07;;;;;;;1.60;1.30;;;;;;;;;;2612119;54;20503;-79
2024/01/05 16:10:33;;;;;;;4.23;1.93;;;;;;;;;;2613290;54;20880;-77
2024/01/05 16:16:19;;;;;;;1.60;1.30;;;;;;;;;;2613025;54;20396;-77
2024/01/05 16:21:48;;;;;;;1.73;1.00;;;;;;;;;;2613668;54;20419;-77
2024/01/05 16:24:33;;;;;;;7.37;1.40;;;;;;;;;;2612121;47;20429;-76
2024/01/05 16:26:59;;;;;;;3.20;2.40;;;;;;;;;;2615140;54;20536;-77
2024/01/05 16:32:29;;;;;;;3.37;1.10;;;;;;;;;;2614915;54;20935;-76
2024/01/05 16:37:59;;;;;;;2.30;1.37;;;;;;;;;;2614771;54;20380;-77
2024/01/05 16:43:28;;;;;;;4.63;2.20;;;;;;;;;;2613268;54;20417;-77
2024/01/05 16:48:58;;;;;;;4.70;3.00;;;;;;;;;;2613337;54;20395;-76
2024/01/05 16:51:43;;;;;;;2.40;1.90;;;;;;;;;;2612690;47;20429;-76
2024/01/05 16:54:09;;;;;;;5.87;3.30;;;;;;;;;;2613465;54;20402;-76
2024/01/05 16:59:39;;;;;;;2.20;1.70;;;;;;;;;;2613976;54;20395;-77
2024/01/05 17:05:09;;;;;;;3.27;1.97;;;;;;;;;;2612753;54;20444;-77
2024/01/05 17:10:41;;;;;;;2.10;1.30;;;;;;;;;;2611528;54;20983;-77
2024/01/05 17:16:13;;;;;;;2.07;1.87;;;;;;;;;;2612571;54;20387;-76
2024/01/05 17:21:47;;;;;;;3.20;1.60;;;;;;;;;;2611602;54;20398;-76
2024/01/05 17:33:31;;;;;;;4.37;2.83;;;;;;;;;;2612073;54;20392;-76
2024/01/05 17:39:01;;;;;;;2.50;1.50;;;;;;;;;;2612098;54;20369;-77
2024/01/05 17:44:33;;;;;;;2.90;2.07;;;;;;;;;;2611776;54;20407;-77
2024/01/05 17:50:03;;;;;;;3.20;2.40;;;;;;;;;;2612233;54;20338;-77
2024/01/05 17:55:33;;;;;;;3.40;2.20;;;;;;;;;;2611240;54;20367;-75
2024/01/05 18:01:03;;;;;;;4.70;2.20;;;;;;;;;;2611604;54;20392;-76
2024/01/05 18:06:32;;;;;;;8.50;4.70;;;;;;;;;;2611026;54;20368;-77
2024/01/05 18:12:02;;;;;;;4.43;2.47;;;;;;;;;;2613983;54;20899;-76
2024/01/05 18:17:31;;;;;;;6.93;4.40;;;;;;;;;;2612706;54;20363;-78
2024/01/05 18:23:01;;;;;;;3.23;2.40;;;;;;;;;;2613774;54;20379;-75
2024/01/05 18:32:08;;;;;;;5.17;4.17;;;;;;;;;;2612273;39;20941;-77
2024/01/05 18:37:41;;;;;;;3.17;2.47;;;;;;;;;;2611921;54;20993;-76
2024/01/05 18:43:14;;;;;;;3.87;2.80;;;;;;;;;;2614567;54;20925;-77
2024/01/05 18:48:44;;;;;;;4.00;2.80;;;;;;;;;;2614682;54;20469;-77
2024/01/05 18:54:18;;;;;;;4.63;2.83;;;;;;;;;;2612042;54;20345;-76
2024/01/05 18:59:50;;;;;;;3.30;2.80;;;;;;;;;;2612425;54;20386;-77
2024/01/05 19:05:22;;;;;;;3.23;2.70;;;;;;;;;;2612020;54;20381;-77
2024/01/05 19:10:52;;;;;;;3.77;2.70;;;;;;;;;;2615242;54;20369;-77
2024/01/05 19:16:23;;;;;;;6.70;4.50;;;;;;;;;;2615864;39;20767;-78
2024/01/05 19:21:52;;;;;;;8.03;3.30;;;;;;;;;;2615466;54;20382;-76
2024/01/05 19:27:30;;;;;;;11.03;3.47;;;;;;;;;;2611881;54;20913;-77
2024/01/05 19:32:59;;;;;;;6.37;4.83;;;;;;;;;;2614235;39;20788;-76
2024/01/05 19:38:32;;;;;;;6.00;4.67;;;;;;;;;;2612938;54;20379;-77
2024/01/05 19:44:01;;;;;;;6.03;4.93;;;;;;;;;;2613955;54;20466;-77
2024/01/05 19:49:31;;;;;;;5.87;5.27;;;;;;;;;;2613285;54;20495;-77
2024/01/05 19:55:03;;;;;;;6.23;5.60;;;;;;;;;;2612875;54;20378;-77
2024/01/05 20:00:36;;;;;;;4.57;2.40;;;;;;;;;;2614883;54;20353;-78
2024/01/05 20:06:06;;;;;;;8.83;4.00;;;;;;;;;;2613467;39;20886;-77
2024/01/05 20:11:35;;;;;;;5.30;4.77;;;;;;;;;;2612166;54;20365;-78
2024/01/05 20:17:08;;;;;;;4.60;3.87;;;;;;;;;;2613540;54;20955;-76
2024/01/05 20:22:39;;;;;;;5.40;3.53;;;;;;;;;;2612890;54;20931;-77
2024/01/05 20:34:19;;;;;;;6.67;5.77;;;;;;;;;;2612171;54;20376;-77
2024/01/05 20:39:48;;;;;;;17.30;7.07;;;;;;;;;;2613178;54;20371;-78
2024/01/05 20:45:20;;;;;;;6.13;5.10;;;;;;;;;;2612780;54;20389;-79
2024/01/05 20:50:50;;;;;;;7.83;7.00;;;;;;;;;;2614010;54;20398;-77
2024/01/05 20:56:20;;;;;;;5.10;4.40;;;;;;;;;;2613578;54;21116;-78
2024/01/05 21:01:49;;;;;;;6.27;4.50;;;;;;;;;;2613153;54;20417;-78
2024/01/05 21:07:24;;;;;;;6.17;4.53;;;;;;;;;;2613647;54;20402;-78
2024/01/05 21:12:54;;;;;;;6.83;4.33;;;;;;;;;;2613667;54;20489;-77
2024/01/05 21:18:23;;;;;;;7.07;6.37;;;;;;;;;;2613145;54;20393;-78
2024/01/05 21:23:54;;;;;;;5.13;4.13;;;;;;;;;;2612932;54;20356;-78
2024/01/05 21:33:07;;;;;;;8.40;7.50;;;;;;;;;;2614127;54;20388;-78
2024/01/05 21:38:36;;;;;;;7.70;6.40;;;;;;;;;;2615332;54;20925;-77
2024/01/05 21:44:08;;;;;;;10.73;7.50;;;;;;;;;;2615303;54;20484;-77
2024/01/05 21:49:39;;;;;;;6.67;5.73;;;;;;;;;;2614684;54;20376;-77
2024/01/05 21:55:08;;;;;;;9.03;7.10;;;;;;;;;;2611845;54;20414;-77
2024/01/05 22:00:40;;;;;;;10.93;8.57;;;;;;;;;;2613633;54;20357;-78
2024/01/05 22:06:13;;;;;;;9.67;7.20;;;;;;;;;;2612345;54;20357;-76
2024/01/05 22:11:46;;;;;;;9.97;8.97;;;;;;;;;;2612991;39;20799;-76
2024/01/05 22:17:16;;;;;;;9.60;8.67;;;;;;;;;;2613082;54;20373;-76
2024/01/05 22:22:45;;;;;;;9.77;7.17;;;;;;;;;;2613419;54;20348;-78
2024/01/05 22:28:20;;;;;;;8.40;6.60;;;;;;;;;;2613401;54;20467;-77
2024/01/05 22:33:50;;;;;;;9.90;8.27;;;;;;;;;;2613670;54;20463;-77
2024/01/05 22:39:25;;;;;;;9.90;7.77;;;;;;;;;;2612803;54;20428;-78
2024/01/05 22:44:57;;;;;;;9.63;8.23;;;;;;;;;;2613104;54;20511;-77
2024/01/05 22:50:28;;;;;;;8.20;6.57;;;;;;;;;;2612874;54;20367;-76
2024/01/05 22:55:59;;;;;;;6.30;5.30;;;;;;;;;;2612415;54;20468;-78
2024/01/05 23:01:32;;;;;;;12.30;7.70;;;;;;;;;;2612974;54;20393;-76
2024/01/05 23:07:06;;;;;;;10.13;8.97;;;;;;;;;;2612313;46;20416;-79
2024/01/05 23:12:36;;;;;;;9.90;8.40;;;;;;;;;;2612665;54;20414;-77
2024/01/05 23:18:11;;;;;;;7.83;7.03;;;;;;;;;;2612267;54;20380;-78
2024/01/05 23:23:44;;;;;;;9.03;6.80;;;;;;;;;;2612923;39;21046;-78
2024/01/05 23:29:21;;;;;;;9.40;6.77;;;;;;;;;;2612942;54;20379;-77
2024/01/05 23:38:33;;;;;;;8.43;7.00;;;;;;;;;;2612631;54;20952;-77
2024/01/05 23:44:05;;;;;;;10.60;7.43;;;;;;;;;;2611391;39;20481;-78
2024/01/05 23:49:43;;;;;;;12.43;7.70;;;;;;;;;;2612305;54;20394;-77
2024/01/05 23:52:28;;;;;;;9.20;7.50;;;;;;;;;;2612644;54;20419;-77
2024/01/05 23:54:54;;;;;;;10.87;8.60;;;;;;;;;;2612625;39;20793;-77
